Time;durP1;ratioP1;P1;durP2;ratioP2;P2;SDS_P1;SDS_P2;PMS_P1;PMS_P2;Temp;Humidity;BMP_temperature;BMP_pressure;BME280_temperature;BME280_humidity;BME280_pressure;Samples;Min_cycle;Max_cycle;Signal;HPM_P1;HPM_P2
2023/10/15 00:02:06;;;;;;;10.25;1.85;;;8.50;99.90;;;;;;4986017;28;20089;-77
2023/10/15 00:04:33;;;;;;;11.85;2.58;;;8.40;99.90;;;;;;5002718;28;20038;-77
2023/10/15 00:06:59;;;;;;;10.85;2.15;;;8.50;99.90;;;;;;4985447;28;20069;-78
2023/10/15 00:09:25;;;;;;;14.98;2.33;;;8.50;99.90;;;;;;4986817;28;20076;-78
2023/10/15 00:11:51;;;;;;;9.35;1.80;;;8.50;99.90;;;;;;4971207;28;20414;-77
2023/10/15 00:14:17;;;;;;;14.13;2.42;;;8.50;99.90;;;;;;4988944;28;20041;-77
2023/10/15 00:16:42;;;;;;;6.07;2.13;;;8.50;99.90;;;;;;4991047;28;20038;-77
2023/10/15 00:19:11;;;;;;;9.27;1.77;;;8.50;99.90;;;;;;5004422;28;20049;-77
2023/10/15 00:21:38;;;;;;;6.85;2.08;;;8.50;99.90;;;;;;5004521;28;20049;-78
2023/10/15 00:24:10;;;;;;;11.02;2.08;;;8.50;99.90;;;;;;5005175;28;20030;-76
2023/10/15 00:26:38;;;;;;;11.13;2.10;;;8.50;99.90;;;;;;5002890;28;20504;-76
2023/10/15 00:29:07;;;;;;;9.13;1.77;;;8.50;99.90;;;;;;4969617;28;20154;-76
2023/10/15 00:31:34;;;;;;;12.60;2.17;;;8.50;99.90;;;;;;5002162;28;20339;-77
2023/10/15 00:33:59;;;;;;;10.20;2.28;;;8.50;99.90;;;;;;4974756;28;20038;-78
2023/10/15 00:36:26;;;;;;;11.90;2.38;;;8.50;99.90;;;;;;4987884;28;20049;-77
2023/10/15 00:38:52;;;;;;;8.73;1.85;;;8.60;99.90;;;;;;5007391;28;20050;-80
2023/10/15 00:41:18;;;;;;;5.97;1.45;;;8.60;99.90;;;;;;4983954;28;20050;-81
2023/10/15 00:43:51;;;;;;;8.57;1.85;;;8.60;99.90;;;;;;4990586;28;20131;-81
2023/10/15 00:46:18;;;;;;;6.55;1.50;;;8.70;99.90;;;;;;4972324;28;20124;-79
2023/10/15 00:48:45;;;;;;;5.72;1.40;;;8.60;99.90;;;;;;5006892;28;21313;-79
2023/10/15 00:51:11;;;;;;;9.45;1.35;;;8.50;99.90;;;;;;4985734;28;20058;-78
2023/10/15 00:53:54;;;;;;;8.35;1.30;;;8.50;99.90;;;;;;4968623;28;20584;-79
2023/10/15 00:56:24;;;;;;;4.93;1.13;;;8.40;99.90;;;;;;5002442;28;20046;-78
2023/10/15 01:01:26;;;;;;;6.88;1.60;;;8.40;99.90;;;;;;5004474;28;20536;-78
2023/10/15 01:03:56;;;;;;;;;;;8.30;99.90;;;;;;5000605;28;20065;-78
2023/10/15 01:06:30;;;;;;;10.40;1.80;;;8.20;99.90;;;;;;5003874;28;19968;-79
2023/10/15 01:09:08;;;;;;;8.32;1.60;;;8.20;99.90;;;;;;4968529;28;20121;-79
2023/10/15 01:11:36;;;;;;;7.93;1.48;;;8.30;99.90;;;;;;4986529;28;21417;-79
2023/10/15 01:14:02;;;;;;;12.02;1.58;;;8.30;99.90;;;;;;5000530;28;20048;-77
2023/10/15 01:16:31;;;;;;;7.05;1.85;;;8.30;99.90;;;;;;5003320;28;20053;-79
2023/10/15 01:19:14;;;;;;;9.15;1.73;;;8.30;99.90;;;;;;4990940;28;20057;-79
2023/10/15 01:21:47;;;;;;;15.40;1.90;;;8.40;99.90;;;;;;5005843;28;20037;-78
2023/10/15 01:24:18;;;;;;;10.68;1.85;;;8.40;99.90;;;;;;5002217;28;22086;-79
2023/10/15 01:26:51;;;;;;;7.95;1.85;;;8.40;99.90;;;;;;4986626;28;20073;-81
2023/10/15 01:29:21;;;;;;;;;;;8.40;99.90;;;;;;5006668;28;20481;-79
2023/10/15 01:31:56;;;;;;;9.27;1.52;;;8.40;99.90;;;;;;5003394;28;19925;-78
2023/10/15 01:34:21;;;;;;;5.72;1.38;;;8.40;99.90;;;;;;5001402;28;20096;-79
2023/10/15 01:36:51;;;;;;;5.25;1.52;;;8.40;99.90;;;;;;4988866;28;20046;-79
2023/10/15 01:39:32;;;;;;;4.60;1.08;;;8.40;99.90;;;;;;4998951;28;20104;-80
2023/10/15 01:42:03;;;;;;;4.35;0.80;;;8.30;99.90;;;;;;4985045;28;20060;-79
2023/10/15 01:44:30;;;;;;;8.27;1.58;;;8.40;99.90;;;;;;5000552;28;20455;-78
2023/10/15 01:49:32;;;;;;;3.47;0.93;;;8.40;99.90;;;;;;4988383;28;20056;-81
2023/10/15 01:52:28;;;;;;;5.25;1.20;;;8.30;99.90;;;;;;5002633;28;20057;-84
2023/10/15 01:54:54;;;;;;;4.53;1.05;;;8.20;99.90;;;;;;5002497;28;20050;-80
2023/10/15 01:57:22;;;;;;;6.00;0.98;;;8.10;99.90;;;;;;4984240;28;20069;-82
2023/10/15 01:59:47;;;;;;;4.53;1.20;;;8.20;99.90;;;;;;4987056;28;20501;-81
2023/10/15 02:02:23;;;;;;;7.68;1.30;;;8.20;99.90;;;;;;5002284;28;20037;-85
2023/10/15 02:04:50;;;;;;;6.28;1.75;;;8.10;99.90;;;;;;5001836;28;20046;-85
2023/10/15 02:07:22;;;;;;;3.70;1.17;;;8.10;99.90;;;;;;4989183;28;20045;-81
2023/10/15 02:09:48;;;;;;;8.07;1.85;;;8.00;99.90;;;;;;4984728;28;20065;-80
2023/10/15 02:12:18;;;;;;;8.05;1.75;;;7.90;99.90;;;;;;4969376;28;20058;-79
2023/10/15 02:14:44;;;;;;;6.80;1.20;;;7.80;99.90;;;;;;4968839;28;20077;-80
2023/10/15 02:17:13;;;;;;;7.13;1.35;;;7.70;99.90;;;;;;4985183;28;20137;-79
2023/10/15 02:19:42;;;;;;;8.15;0.80;;;7.60;99.90;;;;;;4985071;28;20453;-79
2023/10/15 02:22:14;;;;;;;5.00;0.80;;;7.50;99.90;;;;;;5004607;28;20034;-79
2023/10/15 02:24:47;;;;;;;4.75;0.90;;;7.50;99.90;;;;;;4981946;28;20042;-79
2023/10/15 02:27:23;;;;;;;3.55;0.80;;;7.50;99.90;;;;;;4969843;28;20054;-78
2023/10/15 02:29:51;;;;;;;5.88;1.10;;;7.50;99.90;;;;;;4987740;28;20044;-78
2023/10/15 02:32:21;;;;;;;4.95;0.90;;;7.50;99.90;;;;;;4990248;28;20111;-78
2023/10/15 02:34:50;;;;;;;2.90;0.63;;;7.50;99.90;;;;;;4992000;28;20042;-78
2023/10/15 02:37:23;;;;;;;5.78;1.00;;;7.60;99.90;;;;;;4989201;28;21465;-77
2023/10/15 02:39:52;;;;;;;;;;;7.50;99.90;;;;;;4972394;28;20096;-78
2023/10/15 02:42:18;;;;;;;5.25;1.30;;;7.60;99.90;;;;;;4988470;28;19930;-77
2023/10/15 02:44:45;;;;;;;4.18;1.10;;;7.60;99.90;;;;;;5011714;28;20387;-77
2023/10/15 02:47:20;;;;;;;5.78;1.13;;;7.50;99.90;;;;;;4993763;28;20033;-76
2023/10/15 02:52:19;;;;;;;3.28;1.00;;;7.50;99.90;;;;;;4990777;28;20042;-76
2023/10/15 02:54:47;;;;;;;4.40;1.25;;;7.40;99.90;;;;;;4989301;28;20046;-76
2023/10/15 02:57:15;;;;;;;4.10;0.80;;;7.30;99.90;;;;;;4988684;28;20087;-76
2023/10/15 02:59:51;;;;;;;3.78;0.93;;;7.20;99.90;;;;;;4986716;28;20405;-77
2023/10/15 03:02:20;;;;;;;4.80;0.80;;;7.20;99.90;;;;;;5002997;28;20034;-77
2023/10/15 03:04:51;;;;;;;7.03;0.60;;;7.10;99.90;;;;;;4983628;28;20069;-77
2023/10/15 03:07:20;;;;;;;3.83;0.90;;;7.10;99.90;;;;;;4991752;28;20147;-76
2023/10/15 03:09:48;;;;;;;5.03;1.13;;;7.10;99.90;;;;;;4971887;28;20079;-77
2023/10/15 03:12:16;;;;;;;4.75;0.80;;;7.10;99.90;;;;;;4988780;28;20042;-77
2023/10/15 03:14:42;;;;;;;2.72;0.95;;;7.10;99.90;;;;;;4984812;28;20103;-76
2023/10/15 03:17:14;;;;;;;3.90;0.80;;;7.10;99.90;;;;;;4974645;28;20038;-76
2023/10/15 03:19:43;;;;;;;4.90;0.90;;;7.10;99.90;;;;;;5007114;28;20050;-76
2023/10/15 03:22:11;;;;;;;5.32;0.88;;;7.10;99.90;;;;;;4974908;28;20054;-76
2023/10/15 03:24:38;;;;;;;5.00;1.25;;;7.20;99.90;;;;;;4988847;28;20252;-76
2023/10/15 03:27:07;;;;;;;5.28;1.00;;;7.20;99.90;;;;;;4988460;28;20141;-76
2023/10/15 03:29:33;;;;;;;8.02;1.30;;;7.20;99.90;;;;;;4991830;28;20045;-76
2023/10/15 03:32:09;;;;;;;5.25;1.20;;;7.30;99.90;;;;;;4988801;28;20034;-77
2023/10/15 03:34:48;;;;;;;6.20;1.23;;;7.30;99.90;;;;;;5007173;28;20504;-77
2023/10/15 03:37:15;;;;;;;7.50;1.67;;;7.40;99.90;;;;;;5002983;28;20137;-77
2023/10/15 03:42:09;;;;;;;5.70;1.15;;;7.40;99.90;;;;;;5002112;28;20125;-77
2023/10/15 03:44:37;;;;;;;5.28;1.05;;;7.50;99.90;;;;;;4990823;28;20050;-77
2023/10/15 03:47:06;;;;;;;6.20;0.90;;;7.40;99.90;;;;;;5006624;28;20133;-77
2023/10/15 03:49:32;;;;;;;7.93;1.27;;;7.40;99.90;;;;;;4991126;28;20091;-77
2023/10/15 03:51:58;;;;;;;6.88;1.20;;;7.40;99.90;;;;;;4988733;28;20037;-77
2023/10/15 03:54:24;;;;;;;6.70;1.02;;;7.50;99.90;;;;;;5008241;28;20524;-78
2023/10/15 03:56:52;;;;;;;13.80;2.25;;;7.50;99.90;;;;;;4988265;28;20046;-79
2023/10/15 03:59:19;;;;;;;5.90;1.30;;;7.50;99.90;;;;;;4989117;28;20045;-78
2023/10/15 04:01:48;;;;;;;4.65;1.00;;;7.50;99.90;;;;;;5004082;28;20038;-79
2023/10/15 04:04:18;;;;;;;6.30;1.70;;;7.60;99.90;;;;;;5000523;28;20037;-79
2023/10/15 04:07:03;;;;;;;6.10;1.48;;;7.60;99.90;;;;;;5007940;28;20138;-79
2023/10/15 04:09:33;;;;;;;6.80;1.40;;;7.80;99.90;;;;;;4990520;28;20049;-78
2023/10/15 04:11:59;;;;;;;8.15;2.08;;;7.80;99.90;;;;;;5002424;28;20049;-78
2023/10/15 04:14:32;;;;;;;8.75;1.38;;;7.90;99.90;;;;;;5007126;28;20038;-79
2023/10/15 04:16:58;;;;;;;10.10;1.50;;;7.90;99.90;;;;;;4987441;28;20069;-79
2023/10/15 04:19:29;;;;;;;11.13;2.35;;;7.90;99.90;;;;;;5004513;28;20049;-81
2023/10/15 04:22:00;;;;;;;8.55;1.98;;;8.10;99.90;;;;;;4989355;28;20042;-78
2023/10/15 04:24:36;;;;;;;7.18;2.00;;;8.20;99.90;;;;;;4987618;28;20113;-78
2023/10/15 04:27:18;;;;;;;8.43;1.15;;;8.10;99.90;;;;;;5004871;28;20137;-79
2023/10/15 04:29:50;;;;;;;6.38;1.40;;;8.10;99.90;;;;;;5005726;28;20050;-77
2023/10/15 04:33:02;;;;;;;6.88;1.55;;;8.00;99.90;;;;;;5007098;28;20107;-77
2023/10/15 04:35:11;;;;;;;11.43;1.80;;;7.80;99.90;;;;;;4984331;28;20049;-77
2023/10/15 04:37:40;;;;;;;6.57;1.10;;;7.70;99.90;;;;;;4972985;28;20030;-78
2023/10/15 04:40:11;;;;;;;8.68;1.70;;;7.70;99.90;;;;;;5002820;28;20312;-78
2023/10/15 04:42:48;;;;;;;8.60;1.15;;;7.70;99.90;;;;;;4987476;28;20128;-78
2023/10/15 04:47:59;;;;;;;7.63;1.20;;;7.80;99.90;;;;;;2095187;22;20439;-79
2023/10/15 04:50:29;;;;;;;9.95;1.50;;;7.80;99.90;;;;;;5020098;28;20049;-78
2023/10/15 04:53:12;;;;;;;9.25;1.70;;;7.80;99.90;;;;;;5005709;28;20402;-78
2023/10/15 04:55:42;;;;;;;10.10;1.30;;;7.80;99.90;;;;;;5002868;28;20511;-78
2023/10/15 04:58:09;;;;;;;7.45;1.42;;;7.80;99.90;;;;;;5005264;28;20045;-77
2023/10/15 05:00:38;;;;;;;11.77;1.95;;;7.80;99.90;;;;;;5005555;28;20127;-78
2023/10/15 05:03:04;;;;;;;8.55;1.50;;;7.80;99.90;;;;;;5008900;28;20509;-79
2023/10/15 05:05:31;;;;;;;12.98;2.40;;;7.80;99.90;;;;;;5021822;28;20044;-77
2023/10/15 05:07:59;;;;;;;10.20;1.48;;;7.80;99.90;;;;;;4990237;28;20049;-77
2023/10/15 05:10:28;;;;;;;8.50;1.55;;;7.80;99.90;;;;;;5006067;28;20087;-76
2023/10/15 05:12:54;;;;;;;3.78;1.17;;;7.80;99.90;;;;;;5019648;28;20084;-75
2023/10/15 05:15:19;;;;;;;7.20;1.33;;;7.80;99.90;;;;;;5003880;28;20081;-75
2023/10/15 05:17:47;;;;;;;9.43;1.63;;;7.70;99.90;;;;;;5027613;28;20045;-76
2023/10/15 05:20:13;;;;;;;6.18;1.42;;;7.60;99.90;;;;;;5019101;28;20033;-76
2023/10/15 05:22:42;;;;;;;5.47;0.98;;;7.60;99.90;;;;;;5009626;28;20038;-75
2023/10/15 05:25:17;;;;;;;5.50;1.08;;;7.50;99.90;;;;;;5006518;28;20037;-73
2023/10/15 05:27:51;;;;;;;7.95;1.30;;;7.50;99.90;;;;;;5008027;28;20046;-75
2023/10/15 05:30:17;;;;;;;7.97;1.10;;;7.40;99.90;;;;;;5021884;28;20041;-74
2023/10/15 05:32:48;;;;;;;4.75;1.27;;;7.40;99.90;;;;;;5023078;28;20045;-76
2023/10/15 05:35:17;;;;;;;5.03;1.20;;;7.40;99.90;;;;;;5026148;28;20102;-75
2023/10/15 05:37:44;;;;;;;4.53;1.20;;;7.40;99.90;;;;;;5007158;28;20048;-76
2023/10/15 05:40:12;;;;;;;3.65;1.00;;;7.40;99.90;;;;;;5023546;28;20041;-76
2023/10/15 05:42:37;;;;;;;6.20;1.00;;;7.30;99.90;;;;;;5002843;28;20033;-76
2023/10/15 05:45:06;;;;;;;3.72;1.10;;;7.30;99.90;;;;;;5021624;28;20148;-76
2023/10/15 05:47:34;;;;;;;5.60;0.90;;;7.20;99.90;;;;;;5024745;28;20473;-77
2023/10/15 05:50:00;;;;;;;7.53;1.27;;;7.20;99.90;;;;;;5005925;28;20046;-77
2023/10/15 05:52:25;;;;;;;8.23;1.40;;;7.20;99.90;;;;;;5001628;28;20045;-77
2023/10/15 05:54:53;;;;;;;5.88;0.90;;;7.20;99.90;;;;;;5019961;28;20440;-76
2023/10/15 05:57:22;;;;;;;11.98;1.60;;;7.20;99.90;;;;;;5003126;28;20076;-76
2023/10/15 05:59:51;;;;;;;3.92;1.05;;;7.20;99.90;;;;;;5021099;28;20053;-76
2023/10/15 06:02:17;;;;;;;7.72;1.20;;;7.30;99.90;;;;;;5017230;28;20037;-76
2023/10/15 06:04:43;;;;;;;12.50;1.52;;;7.30;99.90;;;;;;5014043;28;20050;-76
2023/10/15 06:07:12;;;;;;;4.65;1.05;;;7.30;99.90;;;;;;5006868;28;20099;-76
2023/10/15 06:09:37;;;;;;;5.85;1.42;;;7.30;99.90;;;;;;5018711;28;20077;-76
2023/10/15 06:12:05;;;;;;;7.38;1.27;;;7.30;99.90;;;;;;5004028;28;20104;-76
2023/10/15 06:14:31;;;;;;;11.77;1.60;;;7.30;99.90;;;;;;5005608;28;20041;-76
2023/10/15 06:16:58;;;;;;;9.75;1.30;;;7.30;99.90;;;;;;5020556;28;20136;-77
2023/10/15 06:19:29;;;;;;;5.35;1.13;;;7.40;99.90;;;;;;5015803;28;20062;-77
2023/10/15 06:21:55;;;;;;;5.75;1.27;;;7.40;99.90;;;;;;5002177;28;20041;-77
2023/10/15 06:24:23;;;;;;;6.22;1.00;;;7.40;99.90;;;;;;5019706;28;20057;-77
2023/10/15 06:26:49;;;;;;;8.23;1.02;;;7.40;99.90;;;;;;5000885;28;20053;-76
2023/10/15 06:29:15;;;;;;;6.50;1.10;;;7.40;99.90;;;;;;5000166;28;20053;-73
2023/10/15 06:31:41;;;;;;;7.63;1.33;;;7.40;99.90;;;;;;5021659;28;20045;-75
2023/10/15 06:34:07;;;;;;;13.63;2.47;;;7.40;99.90;;;;;;5018663;28;20129;-75
2023/10/15 06:36:33;;;;;;;10.57;2.53;;;7.60;99.90;;;;;;4988549;28;20129;-75
2023/10/15 06:39:00;;;;;;;9.23;1.95;;;7.70;99.90;;;;;;5003170;28;20491;-75
2023/10/15 06:41:26;;;;;;;17.88;2.13;;;7.80;99.90;;;;;;4998398;28;20041;-75
2023/10/15 06:43:52;;;;;;;16.85;2.35;;;8.00;99.90;;;;;;5018258;28;20116;-76
2023/10/15 06:46:18;;;;;;;9.85;1.95;;;7.90;99.90;;;;;;4997308;28;20113;-75
2023/10/15 06:48:44;;;;;;;12.00;2.40;;;8.00;99.90;;;;;;5001537;28;20095;-75
2023/10/15 06:51:10;;;;;;;9.80;1.58;;;8.00;99.90;;;;;;5003723;28;20562;-77
2023/10/15 06:53:36;;;;;;;11.90;2.42;;;8.00;99.90;;;;;;5020009;28;20049;-76
2023/10/15 06:56:02;;;;;;;7.68;1.60;;;8.00;99.90;;;;;;5020224;28;20034;-74
2023/10/15 06:58:30;;;;;;;8.40;1.80;;;8.00;99.90;;;;;;4999655;28;20049;-75
2023/10/15 07:00:56;;;;;;;12.98;2.00;;;8.00;99.90;;;;;;5001359;28;20120;-76
2023/10/15 07:03:23;;;;;;;10.13;2.08;;;8.00;99.90;;;;;;5019434;28;20120;-78
2023/10/15 07:05:49;;;;;;;12.55;2.05;;;8.00;99.90;;;;;;5002439;28;20037;-80
2023/10/15 07:08:15;;;;;;;5.65;1.60;;;8.00;99.90;;;;;;5001936;28;20087;-80
2023/10/15 07:10:41;;;;;;;9.52;1.55;;;8.00;99.90;;;;;;5017333;28;20033;-79
2023/10/15 07:13:07;;;;;;;6.70;1.35;;;8.00;99.90;;;;;;5001251;28;20519;-77
2023/10/15 07:15:36;;;;;;;7.38;1.15;;;8.00;99.90;;;;;;5020637;28;20044;-78
2023/10/15 07:18:03;;;;;;;7.45;1.48;;;8.00;99.90;;;;;;4996884;28;20125;-78
2023/10/15 07:20:29;;;;;;;7.10;1.98;;;8.10;99.90;;;;;;5003496;28;20095;-79
2023/10/15 07:22:56;;;;;;;6.05;1.67;;;8.20;99.90;;;;;;5019000;28;20050;-77
2023/10/15 07:25:29;;;;;;;5.78;1.42;;;8.20;99.90;;;;;;5014440;28;20076;-78
2023/10/15 07:27:57;;;;;;;2.72;1.05;;;8.20;99.90;;;;;;5020651;28;20049;-78
2023/10/15 07:30:23;;;;;;;8.48;1.23;;;8.10;99.90;;;;;;5006115;28;20555;-78
2023/10/15 07:32:58;;;;;;;9.45;1.42;;;8.10;99.90;;;;;;5015899;28;20065;-78
2023/10/15 07:35:25;;;;;;;6.75;1.38;;;8.10;99.90;;;;;;4996136;28;20052;-78
2023/10/15 07:37:52;;;;;;;7.15;1.90;;;8.20;99.90;;;;;;4987284;28;20499;-79
2023/10/15 07:40:23;;;;;;;10.93;1.60;;;8.30;99.90;;;;;;5002159;28;20530;-78
2023/10/15 07:42:52;;;;;;;14.90;1.75;;;8.50;99.90;;;;;;5014855;28;20050;-79
2023/10/15 07:45:19;;;;;;;8.80;1.73;;;8.60;99.90;;;;;;4989215;28;20862;-79
2023/10/15 07:47:45;;;;;;;8.32;1.65;;;8.80;99.90;;;;;;5016123;28;20065;-78
2023/10/15 07:50:17;;;;;;;6.03;1.48;;;9.00;99.90;;;;;;5000885;28;20050;-78
2023/10/15 07:52:43;;;;;;;5.88;1.17;;;9.10;99.90;;;;;;5022303;28;20041;-78
2023/10/15 07:55:10;;;;;;;5.78;1.10;;;9.10;99.90;;;;;;5003685;28;20045;-77
2023/10/15 07:57:37;;;;;;;3.10;0.85;;;9.10;99.90;;;;;;5022732;28;20053;-78
2023/10/15 08:00:08;;;;;;;4.57;1.13;;;9.00;99.90;;;;;;4982682;28;20052;-79
2023/10/15 08:02:37;;;;;;;3.67;0.80;;;8.90;99.90;;;;;;4974365;28;20055;-77
2023/10/15 08:05:04;;;;;;;5.45;1.20;;;8.70;99.90;;;;;;4998560;28;20130;-77
2023/10/15 08:07:29;;;;;;;5.82;1.35;;;8.60;99.90;;;;;;5016079;28;20046;-79
2023/10/15 08:09:55;;;;;;;6.20;1.02;;;8.60;99.90;;;;;;4999347;28;20040;-79
2023/10/15 08:12:21;;;;;;;4.63;1.08;;;8.50;99.90;;;;;;5002377;28;20173;-80
2023/10/15 08:14:47;;;;;;;8.20;1.70;;;8.30;99.90;;;;;;4989310;28;20132;-79
2023/10/15 08:17:15;;;;;;;4.22;1.30;;;8.30;99.90;;;;;;4983480;28;20497;-78
2023/10/15 08:19:41;;;;;;;5.00;1.50;;;8.20;99.90;;;;;;4986829;28;20116;-79
2023/10/15 08:22:07;;;;;;;6.40;1.25;;;8.20;99.90;;;;;;4998431;28;20453;-79
2023/10/15 08:24:34;;;;;;;5.40;1.38;;;8.20;99.90;;;;;;4984837;28;20515;-80
2023/10/15 08:27:00;;;;;;;13.30;2.38;;;8.20;99.90;;;;;;5004407;28;20416;-79
2023/10/15 08:29:25;;;;;;;7.85;1.77;;;8.20;99.90;;;;;;5002434;28;20041;-78
2023/10/15 08:31:51;;;;;;;8.65;1.25;;;8.30;99.90;;;;;;5001508;28;20049;-79
2023/10/15 08:34:17;;;;;;;5.88;1.30;;;8.40;99.90;;;;;;4984463;28;20138;-78
2023/10/15 08:36:43;;;;;;;10.15;1.95;;;8.50;99.90;;;;;;4999548;28;20263;-79
2023/10/15 08:39:08;;;;;;;8.23;1.60;;;8.80;99.90;;;;;;4998110;28;20459;-79
2023/10/15 08:41:38;;;;;;;5.82;1.30;;;8.90;99.90;;;;;;4983660;28;20083;-81
2023/10/15 08:44:07;;;;;;;9.85;1.60;;;9.00;99.90;;;;;;5000430;28;20041;-79
2023/10/15 08:46:36;;;;;;;11.70;1.50;;;9.10;99.90;;;;;;4987420;28;20034;-79
2023/10/15 08:49:06;;;;;;;6.82;1.35;;;9.20;99.90;;;;;;4998850;28;20042;-79
2023/10/15 08:51:34;;;;;;;18.60;1.73;;;9.30;99.90;;;;;;4980164;28;20041;-80
2023/10/15 08:54:02;;;;;;;7.78;1.70;;;9.30;99.90;;;;;;5019162;28;20045;-79
2023/10/15 08:56:30;;;;;;;5.57;1.88;;;9.50;99.90;;;;;;5017687;28;20381;-79
2023/10/15 08:58:57;;;;;;;7.95;1.50;;;9.50;99.90;;;;;;4999743;28;20107;-78
2023/10/15 09:01:23;;;;;;;9.75;2.08;;;9.60;99.90;;;;;;4980497;28;20048;-77
2023/10/15 09:03:52;;;;;;;7.72;1.90;;;9.60;99.90;;;;;;4997547;28;20049;-78
2023/10/15 09:06:22;;;;;;;10.30;1.77;;;9.70;99.90;;;;;;5017440;28;20574;-77
2023/10/15 09:08:50;;;;;;;5.88;1.30;;;9.70;99.90;;;;;;4998622;28;20056;-79
2023/10/15 09:11:23;;;;;;;10.45;1.35;;;9.80;99.90;;;;;;5016990;28;20069;-78
2023/10/15 09:13:54;;;;;;;11.45;1.27;;;9.70;99.90;;;;;;5020076;28;20045;-78
2023/10/15 09:16:20;;;;;;;8.38;1.58;;;9.70;99.90;;;;;;4986471;28;20454;-79
2023/10/15 09:18:47;;;;;;;9.73;1.42;;;9.60;99.90;;;;;;4995880;28;20045;-78
2023/10/15 09:21:23;;;;;;;12.68;2.25;;;9.50;99.90;;;;;;4997299;28;20079;-78
2023/10/15 09:23:50;;;;;;;6.65;1.55;;;9.40;99.90;;;;;;5012754;28;20042;-76
2023/10/15 09:26:16;;;;;;;9.23;1.88;;;9.40;99.90;;;;;;4998490;28;20045;-76
2023/10/15 09:28:42;;;;;;;7.93;1.80;;;9.40;99.90;;;;;;4998545;28;20369;-77
2023/10/15 09:31:10;;;;;;;7.60;1.77;;;9.60;99.90;;;;;;4999680;28;20443;-76
2023/10/15 09:33:37;;;;;;;6.68;1.50;;;9.80;99.90;;;;;;5004941;28;20041;-75
2023/10/15 09:36:04;;;;;;;8.90;1.67;;;10.00;99.90;;;;;;5015400;28;20133;-77
2023/10/15 09:38:31;;;;;;;7.35;1.60;;;10.10;99.90;;;;;;4995863;28;20496;-76
2023/10/15 09:41:05;;;;;;;6.43;1.55;;;10.20;99.90;;;;;;4998180;28;20048;-78
2023/10/15 09:43:31;;;;;;;8.35;1.67;;;10.30;99.90;;;;;;5012413;28;20539;-78
2023/10/15 09:45:58;;;;;;;8.50;1.80;;;10.50;99.90;;;;;;5017676;28;20060;-77
2023/10/15 09:48:25;;;;;;;7.68;1.15;;;10.70;99.90;;;;;;4985826;28;20038;-76
2023/10/15 09:50:59;;;;;;;8.63;1.55;;;10.70;99.90;;;;;;5012960;28;20049;-78
2023/10/15 09:53:27;;;;;;;6.53;1.20;;;10.50;99.90;;;;;;5001138;28;20068;-71
2023/10/15 09:55:55;;;;;;;4.20;1.00;;;10.40;99.90;;;;;;4995314;28;20144;-75
2023/10/15 09:58:22;;;;;;;6.93;1.30;;;10.20;99.90;;;;;;4998774;28;20125;-75
2023/10/15 10:03:29;;;;;;;4.72;1.08;;;10.50;99.90;;;;;;5010131;28;20044;-79
2023/10/15 10:06:24;;;;;;;6.72;1.33;;;10.70;99.90;;;;;;4985426;28;20081;-79
2023/10/15 10:09:16;;;;;;;10.77;1.50;;;10.90;99.90;;;;;;4968538;28;20459;-69
2023/10/15 10:12:11;;;;;;;6.93;1.65;;;11.00;99.90;;;;;;4997700;28;20040;-72
2023/10/15 10:15:11;;;;;;;8.15;1.80;;;10.90;99.90;;;;;;4995364;28;20071;-74
2023/10/15 10:17:38;;;;;;;7.20;1.38;;;10.90;99.90;;;;;;5012466;28;20285;-74
2023/10/15 10:20:11;;;;;;;7.63;1.40;;;10.90;99.90;;;;;;5016304;28;20113;-72
2023/10/15 10:22:38;;;;;;;7.10;1.88;;;10.80;99.90;;;;;;5018982;28;20056;-74
2023/10/15 10:25:04;;;;;;;6.50;1.40;;;10.60;99.90;;;;;;4997857;28;21046;-73
2023/10/15 10:27:43;;;;;;;13.70;2.90;;;10.70;99.90;;;;;;4979954;28;20037;-72
2023/10/15 10:30:28;;;;;;;12.02;1.50;;;10.70;99.90;;;;;;5000070;28;20066;-73
2023/10/15 10:32:57;;;;;;;15.07;1.90;;;10.70;99.90;;;;;;5015565;28;20053;-73
2023/10/15 10:35:26;;;;;;;11.57;1.70;;;10.80;99.90;;;;;;4999755;28;20045;-70
2023/10/15 10:38:06;;;;;;;7.97;1.58;;;11.00;99.90;;;;;;4999390;28;20202;-71
2023/10/15 10:40:48;;;;;;;7.00;1.92;;;11.20;99.90;;;;;;4980150;28;20096;-72
2023/10/15 10:43:21;;;;;;;9.63;1.73;;;11.40;99.90;;;;;;5002563;28;20216;-72
2023/10/15 10:46:01;;;;;;;4.82;1.58;;;11.30;99.90;;;;;;5012985;28;20315;-72
2023/10/15 10:48:28;;;;;;;7.03;1.30;;;11.10;99.90;;;;;;5011309;28;20133;-72
2023/10/15 10:51:19;;;;;;;6.03;1.20;;;10.80;99.90;;;;;;5001558;28;20160;-71
2023/10/15 10:53:59;;;;;;;8.43;1.58;;;10.70;99.90;;;;;;5008947;28;20046;-75
2023/10/15 10:56:40;;;;;;;3.95;1.20;;;10.70;99.90;;;;;;5018698;28;22040;-76
2023/10/15 10:59:12;;;;;;;7.03;1.10;;;10.70;99.90;;;;;;5020566;28;20345;-76
2023/10/15 11:01:42;;;;;;;4.35;1.05;;;10.80;99.90;;;;;;5017174;28;20072;-75
2023/10/15 11:04:10;;;;;;;5.80;0.93;;;10.90;99.90;;;;;;4997331;28;20400;-75
2023/10/15 11:06:45;;;;;;;4.43;0.77;;;10.90;99.90;;;;;;5000768;28;20049;-75
2023/10/15 11:09:15;;;;;;;6.47;1.30;;;11.00;99.90;;;;;;4999934;28;20412;-75
2023/10/15 11:11:46;;;;;;;5.05;1.05;;;11.10;99.90;;;;;;5001616;28;20053;-75
2023/10/15 11:14:12;;;;;;;6.20;0.93;;;11.10;99.90;;;;;;5022733;28;20068;-75
2023/10/15 11:16:42;;;;;;;6.85;1.33;;;11.20;99.90;;;;;;5000503;28;20045;-75
2023/10/15 11:19:18;;;;;;;7.90;1.60;;;11.20;99.90;;;;;;4998962;28;20037;-74
2023/10/15 11:21:45;;;;;;;7.15;1.25;;;11.20;99.90;;;;;;5016922;28;20061;-75
2023/10/15 11:24:12;;;;;;;9.18;1.90;;;11.20;99.90;;;;;;4998773;28;20116;-75
2023/10/15 11:26:47;;;;;;;8.25;1.95;;;11.30;99.90;;;;;;4999779;28;20158;-75
2023/10/15 11:29:15;;;;;;;10.82;1.42;;;11.30;99.90;;;;;;5015499;28;20045;-76
2023/10/15 11:31:44;;;;;;;7.13;2.03;;;11.40;99.90;;;;;;4997600;28;20160;-75
2023/10/15 11:34:16;;;;;;;7.32;1.42;;;11.40;99.90;;;;;;5017900;28;20124;-75
2023/10/15 11:36:48;;;;;;;7.30;1.40;;;11.50;99.90;;;;;;5005745;28;20038;-75
2023/10/15 11:39:18;;;;;;;8.80;1.75;;;11.60;99.90;;;;;;4981825;28;20050;-75
2023/10/15 11:41:56;;;;;;;8.25;2.53;;;11.80;99.90;;;;;;5001498;28;20064;-76
2023/10/15 11:44:26;;;;;;;4.82;1.42;;;11.80;99.90;;;;;;4999892;28;20056;-75
2023/10/15 11:46:55;;;;;;;9.38;1.52;;;11.70;99.90;;;;;;5022584;28;20053;-75
2023/10/15 11:49:25;;;;;;;7.97;1.40;;;11.50;99.90;;;;;;4987302;28;20287;-75
2023/10/15 11:51:57;;;;;;;6.38;1.48;;;11.30;99.90;;;;;;5002555;28;20125;-76
2023/10/15 11:54:30;;;;;;;11.15;1.65;;;11.10;99.90;;;;;;5015025;28;20056;-75
2023/10/15 11:56:56;;;;;;;7.22;1.42;;;11.00;99.90;;;;;;5018111;28;20427;-75
2023/10/15 11:59:28;;;;;;;5.38;1.27;;;11.10;99.90;;;;;;5019475;28;20648;-71
2023/10/15 12:01:54;;;;;;;5.72;1.30;;;11.30;99.90;;;;;;5002830;28;20128;-77
2023/10/15 12:04:23;;;;;;;6.75;1.60;;;11.40;99.90;;;;;;4998829;28;20195;-78
2023/10/15 12:06:49;;;;;;;7.00;1.85;;;11.50;99.90;;;;;;5001257;28;20045;-75
2023/10/15 12:09:24;;;;;;;8.18;1.13;;;11.60;99.90;;;;;;4983637;28;20041;-74
2023/10/15 12:11:51;;;;;;;7.68;2.15;;;11.70;99.90;;;;;;4986379;28;20586;-73
2023/10/15 12:14:17;;;;;;;10.77;2.95;;;11.80;99.90;;;;;;5013030;28;20411;-70
2023/10/15 12:16:44;;;;;;;10.13;1.67;;;11.90;99.90;;;;;;5001933;28;20041;-70
2023/10/15 12:19:10;;;;;;;8.45;2.10;;;12.00;99.90;;;;;;4982052;28;20034;-71
2023/10/15 12:21:39;;;;;;;4.88;1.40;;;12.00;99.90;;;;;;4999765;28;20075;-71
2023/10/15 12:24:07;;;;;;;5.47;1.10;;;12.00;99.90;;;;;;4998763;28;20107;-71
2023/10/15 12:26:33;;;;;;;8.27;1.30;;;12.20;99.90;;;;;;4986653;28;20049;-71
2023/10/15 12:28:59;;;;;;;6.15;1.15;;;12.30;99.90;;;;;;5018376;28;20097;-69
2023/10/15 12:31:24;;;;;;;4.80;0.90;;;12.40;99.90;;;;;;4985136;28;20052;-69
2023/10/15 12:33:50;;;;;;;6.97;1.10;;;12.40;99.90;;;;;;5003506;28;20041;-72
2023/10/15 12:36:16;;;;;;;5.38;1.30;;;12.30;99.90;;;;;;5017629;28;20049;-72
2023/10/15 12:38:43;;;;;;;4.07;0.90;;;12.20;99.90;;;;;;4998211;28;20054;-72
2023/10/15 12:41:09;;;;;;;3.00;0.90;;;12.20;99.90;;;;;;5017120;28;20488;-71
2023/10/15 12:43:36;;;;;;;5.38;1.52;;;12.30;99.90;;;;;;4999156;28;20233;-72
2023/10/15 12:46:03;;;;;;;3.70;0.73;;;12.50;99.90;;;;;;5020748;28;20052;-72
2023/10/15 12:48:29;;;;;;;5.40;0.93;;;12.60;99.90;;;;;;5008694;28;20103;-72
2023/10/15 12:50:56;;;;;;;2.40;1.17;;;12.60;99.90;;;;;;4998510;28;20136;-71
2023/10/15 12:53:25;;;;;;;4.18;1.00;;;12.70;99.90;;;;;;5019041;28;20047;-71
2023/10/15 12:55:52;;;;;;;4.30;1.20;;;12.80;99.90;;;;;;4997229;28;20117;-71
2023/10/15 12:58:18;;;;;;;10.05;1.67;;;12.80;99.90;;;;;;4983760;28;20052;-72
2023/10/15 13:00:48;;;;;;;6.82;1.73;;;13.00;99.90;;;;;;5020586;28;20408;-71
2023/10/15 13:03:18;;;;;;;3.92;1.30;;;12.90;99.90;;;;;;5015399;28;20049;-71
2023/10/15 13:05:44;;;;;;;10.60;2.30;;;12.70;99.90;;;;;;4995674;28;20071;-73
2023/10/15 13:08:10;;;;;;;6.15;1.65;;;12.50;99.90;;;;;;5016233;28;20042;-72
2023/10/15 13:10:36;;;;;;;7.38;1.40;;;12.30;99.90;;;;;;4993418;28;20587;-71
2023/10/15 13:13:02;;;;;;;7.57;1.35;;;12.10;99.90;;;;;;5012484;28;20057;-71
2023/10/15 13:15:28;;;;;;;6.30;1.45;;;11.90;99.90;;;;;;4980007;28;20049;-72
2023/10/15 13:17:57;;;;;;;5.88;1.15;;;11.60;99.90;;;;;;5022183;28;20049;-71
2023/10/15 13:20:23;;;;;;;6.78;1.52;;;11.40;99.90;;;;;;4998836;28;20373;-72